Time;durP1;ratioP1;P1;durP2;ratioP2;P2;SDS_P1;SDS_P2;PMS_P1;PMS_P2;Temp;Humidity;BMP_temperature;BMP_pressure;BME280_temperature;BME280_humidity;BME280_pressure;Samples;Min_cycle;Max_cycle;Signal;HPM_P1;HPM_P2
2021/06/27 00:19:08;;;;;;;14.00;10.90;;;17.40;97.30;;;;;;6164778;23;20485;-91
2021/06/27 00:21:45;;;;;;;16.10;10.97;;;17.40;97.30;;;;;;6131815;23;20463;-92
2021/06/27 00:24:25;;;;;;;15.50;10.83;;;17.40;97.30;;;;;;6131390;23;20399;-91
2021/06/27 00:36:07;;;;;;;31.13;19.97;;;17.10;97.30;;;;;;6185703;23;20935;-92
2021/06/27 00:38:36;;;;;;;27.03;18.30;;;17.00;97.30;;;;;;6185384;23;20380;-91
2021/06/27 00:41:06;;;;;;;25.00;15.30;;;17.00;97.30;;;;;;6187536;23;20461;-92
2021/06/27 00:43:33;;;;;;;24.30;14.27;;;16.90;97.30;;;;;;6186018;23;20408;-91
2021/06/27 00:45:59;;;;;;;17.70;11.33;;;16.80;97.30;;;;;;6186231;23;20446;-91
2021/06/27 00:48:25;;;;;;;19.43;11.03;;;16.80;97.30;;;;;;6187027;23;20384;-92
2021/06/27 00:50:55;;;;;;;14.77;11.30;;;16.70;97.30;;;;;;6187055;23;20483;-92
2021/06/27 00:53:26;;;;;;;15.60;10.50;;;16.60;97.30;;;;;;6187427;23;20211;-91
2021/06/27 00:56:18;;;;;;;13.73;10.23;;;16.60;97.30;;;;;;6187684;23;20438;-92
2021/06/27 00:58:48;;;;;;;18.13;10.63;;;16.50;97.30;;;;;;6187144;23;20473;-91
2021/06/27 01:01:48;;;;;;;14.87;11.00;;;16.50;97.30;;;;;;6187562;23;20419;-92
2021/06/27 01:05:05;;;;;;;16.33;11.83;;;16.50;97.30;;;;;;6177585;23;20423;-93
2021/06/27 01:07:47;;;;;;;14.67;11.00;;;16.40;97.30;;;;;;6124888;23;20384;-91
2021/06/27 01:10:57;;;;;;;17.30;10.17;;;16.30;97.30;;;;;;6187391;23;20392;-92
2021/06/27 01:13:26;;;;;;;14.80;11.10;;;16.30;97.30;;;;;;6130500;23;20413;-92
2021/06/27 01:15:55;;;;;;;16.53;11.47;;;16.30;97.30;;;;;;6184952;23;20884;-91
2021/06/27 01:18:25;;;;;;;17.53;10.87;;;16.30;97.30;;;;;;6185458;23;20868;-91
2021/06/27 01:20:55;;;;;;;15.63;11.30;;;16.20;97.30;;;;;;6185483;23;20476;-91
2021/06/27 01:23:44;;;;;;;17.60;11.80;;;16.20;97.30;;;;;;6185647;23;20409;-92
2021/06/27 01:26:17;;;;;;;16.70;11.50;;;16.10;97.30;;;;;;6185160;23;20384;-93
2021/06/27 01:28:46;;;;;;;17.20;11.70;;;16.00;97.30;;;;;;6185136;23;20385;-92
2021/06/27 01:31:25;;;;;;;16.53;11.83;;;16.00;97.30;;;;;;6184740;23;20856;-92
2021/06/27 01:33:55;;;;;;;17.00;12.10;;;15.90;97.30;;;;;;6190550;23;20440;-92
2021/06/27 01:36:36;;;;;;;22.23;13.47;;;15.90;97.30;;;;;;6191156;23;20394;-92
2021/06/27 01:39:04;;;;;;;20.20;14.80;;;15.80;97.30;;;;;;6191566;23;20379;-91
2021/06/27 01:41:45;;;;;;;20.47;13.83;;;15.80;97.30;;;;;;6191091;23;20447;-92
2021/06/27 01:44:16;;;;;;;20.47;15.00;;;15.80;97.30;;;;;;6191649;23;20403;-92
2021/06/27 01:46:44;;;;;;;28.00;17.03;;;15.80;97.30;;;;;;6217809;23;20379;-91
2021/06/27 01:49:17;;;;;;;24.13;12.80;;;15.80;97.30;;;;;;6191453;23;20378;-91
2021/06/27 01:51:45;;;;;;;18.60;11.10;;;15.80;97.30;;;;;;6192105;23;20379;-92
2021/06/27 01:54:18;;;;;;;19.70;11.97;;;15.80;97.30;;;;;;6192037;23;20395;-92
2021/06/27 01:56:46;;;;;;;26.30;11.77;;;15.80;97.30;;;;;;6192890;23;20465;-92
2021/06/27 01:59:14;;;;;;;19.37;10.93;;;15.80;97.30;;;;;;6192896;23;20371;-91
2021/06/27 02:01:44;;;;;;;15.63;9.93;;;15.80;97.30;;;;;;6192018;23;20852;-92
2021/06/27 02:04:12;;;;;;;14.50;9.33;;;15.80;97.30;;;;;;6191652;23;20766;-92
2021/06/27 02:06:41;;;;;;;16.70;9.47;;;15.80;97.30;;;;;;6191011;23;20387;-91
2021/06/27 02:09:19;;;;;;;13.47;10.10;;;15.80;97.30;;;;;;6190391;23;20380;-92
2021/06/27 02:11:45;;;;;;;19.43;10.93;;;15.70;97.30;;;;;;6188577;23;20380;-92
2021/06/27 02:14:18;;;;;;;21.10;11.57;;;15.70;97.30;;;;;;6216273;23;20401;-91
2021/06/27 02:16:46;;;;;;;15.97;11.33;;;15.60;97.30;;;;;;6189652;23;20165;-92
2021/06/27 02:19:26;;;;;;;17.43;11.30;;;15.60;97.30;;;;;;6189735;23;20375;-91
2021/06/27 02:21:55;;;;;;;16.70;10.80;;;15.50;97.30;;;;;;6189805;23;20383;-92
2021/06/27 02:24:29;;;;;;;21.00;11.20;;;15.40;97.30;;;;;;6189321;23;20481;-91
2021/06/27 02:26:55;;;;;;;21.07;13.13;;;15.40;97.30;;;;;;6190250;23;20386;-91
2021/06/27 02:29:28;;;;;;;20.10;12.43;;;15.40;97.30;;;;;;6190306;23;20383;-91
2021/06/27 02:31:59;;;;;;;17.90;12.80;;;15.50;97.30;;;;;;6191244;23;20159;-92
2021/06/27 02:34:24;;;;;;;18.90;13.87;;;15.50;97.30;;;;;;6191191;23;20436;-91
2021/06/27 02:36:57;;;;;;;23.13;14.30;;;15.50;97.30;;;;;;6190624;23;20490;-91
2021/06/27 02:39:26;;;;;;;19.03;12.73;;;15.50;97.30;;;;;;6217395;23;20160;-92
2021/06/27 02:41:54;;;;;;;18.37;13.00;;;15.50;97.30;;;;;;6191701;23;20379;-91
2021/06/27 02:44:20;;;;;;;18.10;12.30;;;15.50;97.30;;;;;;6191882;23;20459;-91
2021/06/27 02:46:45;;;;;;;21.00;12.27;;;15.50;97.30;;;;;;6191497;23;20843;-92
2021/06/27 02:49:11;;;;;;;23.90;13.20;;;15.50;97.30;;;;;;6191535;23;20179;-92
2021/06/27 02:51:37;;;;;;;18.70;12.50;;;15.50;97.30;;;;;;6192353;23;20679;-92
2021/06/27 02:54:03;;;;;;;18.70;12.60;;;15.40;97.30;;;;;;6191656;23;20250;-92
2021/06/27 02:56:28;;;;;;;19.60;12.87;;;15.40;97.30;;;;;;6191103;23;20615;-91
2021/06/27 02:58:54;;;;;;;21.50;12.90;;;15.30;97.30;;;;;;6190146;23;20383;-91
2021/06/27 03:01:22;;;;;;;22.23;14.03;;;15.30;97.30;;;;;;6189066;23;20187;-91
2021/06/27 03:03:55;;;;;;;25.03;12.53;;;15.30;97.30;;;;;;6189048;23;20172;-92
2021/06/27 03:06:25;;;;;;;19.77;12.40;;;15.20;97.30;;;;;;6189541;23;20422;-91
2021/06/27 03:08:51;;;;;;;21.40;11.90;;;15.20;97.30;;;;;;6189639;23;20696;-91
2021/06/27 03:11:17;;;;;;;17.17;12.60;;;15.20;97.30;;;;;;6188949;23;20391;-92
2021/06/27 03:13:45;;;;;;;18.87;11.90;;;15.20;97.30;;;;;;6189293;23;20556;-91
2021/06/27 03:16:13;;;;;;;17.70;12.37;;;15.20;97.30;;;;;;6189712;23;20410;-91
2021/06/27 03:18:39;;;;;;;17.30;11.17;;;15.10;97.30;;;;;;6190589;23;20395;-92
2021/06/27 03:21:05;;;;;;;16.70;11.93;;;15.10;97.30;;;;;;6190073;23;20485;-91
2021/06/27 03:23:33;;;;;;;17.07;11.83;;;15.10;97.30;;;;;;6189967;23;20302;-91
2021/06/27 03:25:59;;;;;;;17.43;12.37;;;15.10;97.30;;;;;;6190487;23;20418;-92
2021/06/27 03:28:26;;;;;;;19.43;12.53;;;15.10;97.30;;;;;;6190215;23;20387;-91
2021/06/27 03:30:54;;;;;;;17.57;12.20;;;15.00;97.30;;;;;;6190955;23;20166;-92
2021/06/27 03:33:22;;;;;;;18.80;12.00;;;15.00;97.30;;;;;;6191568;23;20399;-92
2021/06/27 03:35:47;;;;;;;21.97;12.37;;;15.00;97.30;;;;;;6191431;23;20456;-93
2021/06/27 03:38:22;;;;;;;18.47;11.53;;;15.00;97.30;;;;;;6191467;23;20379;-91
2021/06/27 03:40:47;;;;;;;23.83;12.50;;;15.00;97.30;;;;;;6191929;23;20182;-92
2021/06/27 03:43:15;;;;;;;20.40;11.97;;;15.00;97.30;;;;;;6191497;23;20407;-92
2021/06/27 03:45:41;;;;;;;15.80;11.23;;;15.00;97.30;;;;;;6191405;23;20158;-92
2021/06/27 03:48:07;;;;;;;17.03;11.27;;;15.00;97.30;;;;;;6190767;23;20469;-91
2021/06/27 03:50:36;;;;;;;20.80;11.47;;;15.00;97.30;;;;;;6190521;23;20152;-92
2021/06/27 03:53:07;;;;;;;19.57;12.13;;;15.00;97.30;;;;;;6178059;23;20475;-92
2021/06/27 03:55:58;;;;;;;18.73;12.23;;;15.00;97.30;;;;;;6199173;23;20390;-95
2021/06/27 04:00:59;;;;;;;17.63;11.63;;;15.10;97.30;;;;;;6193252;22;20466;-91
2021/06/27 04:03:27;;;;;;;25.07;12.47;;;15.10;97.30;;;;;;6183301;23;20799;-91
2021/06/27 04:06:27;;;;;;;18.50;11.70;;;15.10;97.30;;;;;;6184580;23;20164;-91
2021/06/27 04:09:19;;;;;;;20.00;11.80;;;15.10;97.30;;;;;;6184700;23;20383;-91
2021/06/27 04:11:57;;;;;;;;;;;;;;;;;;;;;
2021/06/27 04:14:26;;;;;;;22.33;12.90;;;15.20;97.30;;;;;;6174004;23;20498;-91
2021/06/27 04:16:55;;;;;;;20.03;12.10;;;15.20;97.30;;;;;;6189716;22;20451;-92
2021/06/27 04:19:27;;;;;;;17.57;11.43;;;15.20;97.30;;;;;;6164542;23;20435;-91
2021/06/27 04:22:15;;;;;;;24.47;11.40;;;15.30;97.30;;;;;;6165596;23;20792;-90
2021/06/27 04:24:47;;;;;;;18.40;12.10;;;15.30;97.30;;;;;;6143655;23;20397;-91
2021/06/27 04:27:16;;;;;;;21.67;12.03;;;15.40;97.30;;;;;;6191859;23;20454;-91
2021/06/27 04:29:45;;;;;;;17.47;12.57;;;15.50;97.30;;;;;;6165969;23;20418;-93
2021/06/27 04:32:49;;;;;;;18.00;10.90;;;15.50;97.30;;;;;;6166021;23;20410;-91
2021/06/27 04:35:17;;;;;;;14.23;9.87;;;15.60;97.30;;;;;;6165401;23;20704;-91
2021/06/27 04:37:46;;;;;;;23.67;11.33;;;15.60;97.30;;;;;;6162002;23;20799;-90
2021/06/27 04:40:15;;;;;;;18.80;11.90;;;15.70;97.30;;;;;;6162852;23;20427;-91
2021/06/27 04:42:47;;;;;;;16.40;11.90;;;15.70;97.30;;;;;;6163083;23;20391;-90
2021/06/27 04:45:25;;;;;;;16.03;11.00;;;15.80;97.30;;;;;;6162520;23;20422;-90
2021/06/27 04:48:34;;;;;;;18.23;11.60;;;15.90;97.30;;;;;;6163878;23;20541;-91
2021/06/27 04:51:09;;;;;;;16.90;11.60;;;15.90;97.30;;;;;;6152067;23;20391;-91
2021/06/27 04:53:57;;;;;;;15.83;11.27;;;16.00;97.30;;;;;;6189512;23;20379;-91
2021/06/27 04:56:26;;;;;;;16.43;10.57;;;16.10;97.30;;;;;;6163396;23;20439;-90
2021/06/27 04:58:58;;;;;;;17.40;10.50;;;16.10;97.30;;;;;;6164475;23;20398;-91
2021/06/27 05:15:38;;;;;;;18.20;10.67;;;16.50;97.30;;;;;;6042240;23;20399;-90
2021/06/27 05:18:17;;;;;;;17.03;10.80;;;16.60;97.30;;;;;;6020062;23;20448;-91
2021/06/27 05:20:47;;;;;;;18.20;10.77;;;16.60;97.30;;;;;;6047275;23;20459;-90
2021/06/27 05:23:16;;;;;;;15.27;10.43;;;16.60;97.30;;;;;;6099743;23;20379;-91
2021/06/27 05:25:45;;;;;;;17.97;10.50;;;16.70;97.30;;;;;;6132545;23;20392;-90
2021/06/27 05:44:27;;;;;;;16.97;10.10;;;17.00;97.30;;;;;;6219544;23;20856;-79
2021/06/27 05:46:52;;;;;;;12.07;8.77;;;17.10;97.30;;;;;;6217771;23;20452;-79
2021/06/27 05:49:18;;;;;;;14.47;10.67;;;17.20;97.30;;;;;;6191708;23;20162;-79
2021/06/27 05:51:44;;;;;;;13.20;9.33;;;17.20;97.30;;;;;;6192303;23;20163;-79
2021/06/27 05:54:09;;;;;;;13.73;10.17;;;17.30;97.30;;;;;;6220579;23;20167;-80
2021/06/27 05:56:38;;;;;;;12.37;9.40;;;17.30;97.30;;;;;;6191670;23;20243;-79
2021/06/27 05:59:04;;;;;;;12.60;9.10;;;17.40;97.30;;;;;;6191420;23;20152;-80
2021/06/27 06:01:30;;;;;;;13.60;9.87;;;17.40;97.30;;;;;;6218945;23;20395;-79
2021/06/27 06:03:56;;;;;;;15.03;9.30;;;17.50;97.30;;;;;;6191810;23;20402;-79
2021/06/27 06:06:21;;;;;;;13.67;9.07;;;17.60;97.30;;;;;;6191252;23;20275;-79
2021/06/27 06:08:47;;;;;;;14.80;10.37;;;17.60;97.30;;;;;;6191633;23;20156;-80
2021/06/27 06:11:14;;;;;;;14.67;9.47;;;17.70;97.30;;;;;;6193152;23;20179;-79
2021/06/27 06:13:40;;;;;;;17.67;9.73;;;17.70;97.30;;;;;;6191728;23;20215;-80
2021/06/27 06:16:07;;;;;;;12.67;10.00;;;17.70;97.30;;;;;;6190713;23;20770;-80
2021/06/27 06:18:34;;;;;;;13.90;9.23;;;17.80;97.30;;;;;;6192296;23;20722;-79
2021/06/27 06:20:59;;;;;;;16.40;10.53;;;17.90;97.30;;;;;;6218997;23;20427;-80
2021/06/27 06:23:26;;;;;;;16.90;11.30;;;17.90;97.30;;;;;;6192351;23;20389;-80
2021/06/27 06:25:52;;;;;;;13.20;10.63;;;18.00;97.30;;;;;;6191693;23;20387;-79
2021/06/27 06:28:17;;;;;;;14.97;10.90;;;18.10;97.30;;;;;;6191594;23;20441;-80
2021/06/27 06:30:43;;;;;;;15.60;10.50;;;18.10;97.30;;;;;;6219241;23;20168;-80
2021/06/27 06:33:10;;;;;;;15.17;10.77;;;18.20;97.30;;;;;;6191618;23;20155;-80
2021/06/27 06:35:40;;;;;;;13.87;10.60;;;18.30;97.30;;;;;;6191705;23;20387;-80
2021/06/27 06:38:07;;;;;;;16.70;10.53;;;18.40;97.30;;;;;;6192530;23;20812;-80
2021/06/27 06:40:32;;;;;;;14.40;11.27;;;18.50;97.30;;;;;;6191385;23;20445;-80
2021/06/27 06:42:59;;;;;;;15.93;10.47;;;18.50;97.30;;;;;;6191710;23;20903;-80
2021/06/27 06:45:25;;;;;;;12.87;9.53;;;18.60;97.30;;;;;;6191961;23;20479;-78
2021/06/27 06:47:51;;;;;;;13.23;10.07;;;18.70;97.30;;;;;;6192964;23;20398;-80
2021/06/27 06:50:17;;;;;;;17.97;11.00;;;18.80;97.30;;;;;;6193771;23;20390;-80
2021/06/27 06:52:43;;;;;;;14.27;10.30;;;19.00;97.30;;;;;;6191809;23;20187;-80
2021/06/27 06:55:09;;;;;;;15.10;10.90;;;19.10;97.30;;;;;;6192175;23;20419;-79
2021/06/27 06:57:34;;;;;;;13.83;10.67;;;19.20;97.30;;;;;;6218667;23;20402;-80
2021/06/27 07:00:00;;;;;;;15.57;10.40;;;19.30;97.30;;;;;;6191571;23;20435;-80
2021/06/27 07:02:25;;;;;;;12.20;10.30;;;19.40;97.30;;;;;;6191159;23;20688;-81
2021/06/27 07:05:00;;;;;;;14.93;10.17;;;19.40;97.30;;;;;;6217172;23;20148;-79
2021/06/27 07:07:25;;;;;;;11.50;8.97;;;19.60;97.30;;;;;;6190126;23;20431;-79
2021/06/27 07:09:51;;;;;;;13.10;10.10;;;19.70;97.30;;;;;;6191737;23;20387;-80
2021/06/27 07:12:17;;;;;;;12.60;9.80;;;19.80;97.30;;;;;;6191309;23;20179;-83
2021/06/27 07:14:44;;;;;;;12.87;9.50;;;19.80;97.30;;;;;;6190983;23;20484;-80
2021/06/27 07:17:10;;;;;;;12.50;9.40;;;20.00;97.30;;;;;;6190235;23;20211;-80
2021/06/27 07:19:35;;;;;;;14.83;10.10;;;20.10;97.30;;;;;;6190413;23;20437;-80
2021/06/27 07:22:01;;;;;;;14.30;9.90;;;20.10;97.30;;;;;;6192455;23;20178;-80
2021/06/27 07:24:26;;;;;;;11.90;9.60;;;20.20;97.30;;;;;;6191417;23;20242;-81
2021/06/27 07:26:52;;;;;;;14.13;9.33;;;20.30;97.30;;;;;;6191869;23;20163;-80
2021/06/27 07:29:18;;;;;;;14.30;9.30;;;20.40;97.30;;;;;;6192551;23;20156;-82
2021/06/27 07:31:43;;;;;;;11.40;9.50;;;20.50;97.30;;;;;;6191508;23;20196;-80
2021/06/27 07:34:09;;;;;;;12.93;9.47;;;20.60;97.30;;;;;;6192422;23;20486;-79
2021/06/27 07:36:35;;;;;;;13.43;10.20;;;20.70;97.30;;;;;;6194689;23;20171;-80
2021/06/27 07:39:01;;;;;;;11.93;8.73;;;20.80;97.30;;;;;;6194355;23;20419;-80
2021/06/27 07:41:27;;;;;;;12.10;7.47;;;20.90;97.30;;;;;;6193512;23;20207;-80
2021/06/27 07:43:53;;;;;;;10.63;7.73;;;21.00;97.30;;;;;;6193035;23;20226;-81
2021/06/27 07:46:19;;;;;;;13.47;8.67;;;21.10;97.30;;;;;;6193745;23;20172;-80
2021/06/27 07:48:45;;;;;;;13.77;8.60;;;21.20;97.30;;;;;;6196378;23;20374;-80
2021/06/27 07:51:11;;;;;;;11.30;7.73;;;21.30;96.60;;;;;;6196517;23;20435;-80
2021/06/27 07:53:37;;;;;;;11.60;7.90;;;21.40;97.00;;;;;;6196060;23;20166;-80
2021/06/27 07:56:04;;;;;;;12.47;8.40;;;21.50;97.30;;;;;;6195228;23;20196;-80
2021/06/27 07:58:30;;;;;;;10.70;8.20;;;21.60;96.60;;;;;;6196395;23;20391;-80
2021/06/27 08:00:55;;;;;;;9.30;7.20;;;21.70;94.90;;;;;;6191960;23;20777;-80
2021/06/27 08:03:21;;;;;;;9.77;7.40;;;21.80;95.10;;;;;;6192059;23;20152;-80
2021/06/27 08:05:47;;;;;;;12.63;7.93;;;21.90;94.80;;;;;;6191346;23;20160;-80
2021/06/27 08:08:14;;;;;;;8.90;7.57;;;22.00;94.00;;;;;;6190892;23;20156;-79
2021/06/27 08:10:41;;;;;;;9.27;7.50;;;22.10;94.60;;;;;;6191035;23;20262;-80
2021/06/27 08:13:06;;;;;;;9.40;7.10;;;22.10;93.60;;;;;;6192725;23;20414;-80
2021/06/27 08:15:32;;;;;;;12.20;7.90;;;22.20;95.30;;;;;;6190922;23;20398;-80
2021/06/27 08:17:57;;;;;;;10.00;7.23;;;22.20;95.10;;;;;;6193567;23;20621;-82
2021/06/27 08:20:24;;;;;;;8.47;7.60;;;22.40;95.30;;;;;;6191712;23;20192;-81
2021/06/27 08:22:52;;;;;;;9.57;6.70;;;22.40;91.40;;;;;;6191913;23;20215;-81
2021/06/27 08:25:18;;;;;;;7.47;6.23;;;22.40;92.10;;;;;;6167261;23;20423;-79
2021/06/27 08:27:44;;;;;;;9.00;6.50;;;22.40;91.70;;;;;;6195638;23;20379;-79
2021/06/27 08:30:11;;;;;;;9.50;6.97;;;22.50;91.80;;;;;;6195717;23;20399;-78
2021/06/27 08:32:48;;;;;;;9.00;7.00;;;22.50;92.90;;;;;;6193340;23;20399;-79
2021/06/27 08:35:16;;;;;;;10.13;7.60;;;22.70;94.40;;;;;;6194165;23;20386;-79
2021/06/27 08:37:43;;;;;;;8.87;7.00;;;22.80;93.10;;;;;;6222258;23;20375;-79
2021/06/27 08:40:10;;;;;;;8.80;6.90;;;22.90;92.50;;;;;;6193488;23;20453;-80
2021/06/27 08:42:36;;;;;;;7.10;6.60;;;22.90;91.00;;;;;;6187926;23;20473;-80
2021/06/27 08:45:04;;;;;;;10.67;6.53;;;23.00;90.00;;;;;;6187673;23;20375;-79
2021/06/27 08:47:33;;;;;;;7.67;5.83;;;23.00;90.00;;;;;;6186526;23;20884;-81
2021/06/27 08:49:58;;;;;;;9.40;5.73;;;23.10;87.60;;;;;;6186705;23;20457;-80
2021/06/27 08:52:24;;;;;;;6.30;5.13;;;23.10;87.20;;;;;;6186295;23;21250;-81
2021/06/27 08:54:52;;;;;;;7.27;5.70;;;23.20;86.80;;;;;;6187757;23;20153;-81
2021/06/27 08:57:18;;;;;;;9.10;6.13;;;23.30;87.50;;;;;;6190191;23;20558;-82
2021/06/27 08:59:47;;;;;;;6.60;4.70;;;23.40;87.30;;;;;;6183751;23;20825;-81
2021/06/27 09:02:13;;;;;;;7.57;5.93;;;23.50;87.30;;;;;;6185229;23;20400;-81
2021/06/27 09:04:41;;;;;;;8.70;6.20;;;23.50;86.10;;;;;;6186713;23;20795;-82
2021/06/27 09:07:33;;;;;;;8.93;5.93;;;23.50;86.50;;;;;;6186732;23;20234;-82
2021/06/27 09:10:08;;;;;;;7.30;6.27;;;23.60;87.40;;;;;;6186705;23;20420;-82
2021/06/27 09:12:57;;;;;;;9.20;5.60;;;23.70;85.70;;;;;;6188758;23;20470;-81
2021/06/27 09:15:56;;;;;;;7.40;5.20;;;23.90;87.20;;;;;;6188903;23;20371;-81
2021/06/27 09:18:25;;;;;;;14.20;5.60;;;23.90;86.70;;;;;;6170781;23;20471;-81
2021/06/27 09:20:54;;;;;;;5.60;4.80;;;24.00;85.30;;;;;;6187036;23;20442;-81
2021/06/27 09:23:40;;;;;;;6.03;4.83;;;24.00;83.80;;;;;;6187551;23;20380;-82
2021/06/27 09:26:07;;;;;;;4.90;4.67;;;24.00;81.70;;;;;;6186890;23;20380;-81
2021/06/27 09:28:49;;;;;;;8.50;5.57;;;24.00;82.80;;;;;;6187179;23;20384;-81
2021/06/27 09:31:41;;;;;;;8.80;4.67;;;24.00;83.10;;;;;;6189271;23;20423;-81
2021/06/27 09:34:15;;;;;;;5.93;4.80;;;24.10;84.30;;;;;;6187166;23;20442;-82
2021/06/27 09:36:50;;;;;;;7.47;5.20;;;24.20;84.20;;;;;;6186695;23;20718;-81
2021/06/27 09:39:16;;;;;;;5.23;4.63;;;24.20;83.20;;;;;;6188399;23;20474;-81
2021/06/27 09:41:49;;;;;;;7.30;5.50;;;24.20;82.70;;;;;;6188396;23;20443;-81
2021/06/27 09:44:15;;;;;;;6.00;4.90;;;24.30;83.10;;;;;;6187341;23;20440;-81
2021/06/27 09:46:46;;;;;;;6.03;4.93;;;24.30;82.90;;;;;;6186734;23;20835;-81
2021/06/27 09:49:14;;;;;;;9.20;4.80;;;24.40;82.40;;;;;;6187840;23;20372;-81
2021/06/27 09:51:47;;;;;;;10.60;5.30;;;24.50;80.20;;;;;;6191489;23;20396;-81
2021/06/27 09:54:15;;;;;;;6.73;5.20;;;24.50;82.50;;;;;;6191021;23;20422;-81
2021/06/27 09:56:41;;;;;;;6.07;4.60;;;24.50;83.00;;;;;;6189652;23;20388;-81
2021/06/27 09:59:10;;;;;;;5.47;4.30;;;24.50;82.20;;;;;;6191076;23;20387;-81
2021/06/27 10:01:37;;;;;;;4.97;4.70;;;24.50;83.10;;;;;;6189974;23;20767;-81
2021/06/27 10:04:06;;;;;;;6.40;5.40;;;24.50;84.00;;;;;;6185397;23;20430;-81
2021/06/27 10:06:35;;;;;;;6.60;5.50;;;24.60;84.40;;;;;;6186399;23;20462;-81
2021/06/27 10:09:09;;;;;;;5.37;4.40;;;24.60;84.20;;;;;;6187374;23;20476;-81
2021/06/27 10:11:35;;;;;;;8.23;5.30;;;24.70;83.40;;;;;;6187516;23;20948;-81
2021/06/27 10:14:08;;;;;;;6.30;4.90;;;24.70;83.20;;;;;;6185438;23;20447;-81
2021/06/27 10:16:34;;;;;;;5.20;4.83;;;24.70;84.60;;;;;;6188431;23;20164;-81
2021/06/27 10:19:01;;;;;;;8.30;4.87;;;24.80;83.00;;;;;;6189203;23;20379;-81
2021/06/27 10:21:28;;;;;;;6.67;4.80;;;24.90;81.30;;;;;;6187281;23;20913;-82
2021/06/27 10:23:55;;;;;;;5.57;5.10;;;24.90;80.60;;;;;;6187137;23;20407;-81
2021/06/27 10:26:22;;;;;;;5.80;4.90;;;24.90;81.50;;;;;;6186574;23;20391;-81
2021/06/27 10:28:49;;;;;;;9.37;5.33;;;25.00;83.40;;;;;;6187408;23;20387;-81
2021/06/27 10:31:17;;;;;;;5.73;4.60;;;25.10;82.90;;;;;;6187158;23;20408;-81
2021/06/27 10:33:45;;;;;;;7.13;5.10;;;25.10;81.90;;;;;;6186962;23;20387;-81
2021/06/27 10:36:13;;;;;;;4.50;4.20;;;25.20;81.50;;;;;;6186839;23;20475;-82
2021/06/27 10:38:41;;;;;;;8.53;4.70;;;25.30;79.80;;;;;;6191039;23;20375;-81
2021/06/27 10:41:07;;;;;;;5.27;4.70;;;25.30;78.10;;;;;;6188134;23;20478;-81
2021/06/27 10:44:04;;;;;;;5.20;4.40;;;25.30;77.40;;;;;;6187163;23;20429;-82
2021/06/27 10:46:50;;;;;;;5.73;4.63;;;25.30;79.80;;;;;;6163279;23;20153;-82
2021/06/27 10:49:31;;;;;;;4.53;4.13;;;25.40;78.00;;;;;;6190670;23;20429;-81
2021/06/27 10:52:03;;;;;;;5.40;4.03;;;25.40;75.80;;;;;;6189276;23;20410;-81
2021/06/27 10:54:31;;;;;;;4.57;3.70;;;25.40;77.10;;;;;;6188850;23;20764;-81
2021/06/27 10:57:07;;;;;;;5.73;4.00;;;25.50;75.00;;;;;;6186608;23;20388;-81
2021/06/27 10:59:44;;;;;;;6.47;4.40;;;25.50;75.40;;;;;;6187419;23;20388;-81
2021/06/27 11:02:17;;;;;;;5.83;3.90;;;25.50;77.40;;;;;;6187691;23;20403;-82
2021/06/27 11:04:44;;;;;;;5.17;4.23;;;25.60;80.10;;;;;;6187382;23;20846;-81
2021/06/27 11:07:33;;;;;;;5.37;4.30;;;25.70;79.20;;;;;;6186941;23;20853;-82
2021/06/27 11:10:20;;;;;;;4.63;3.80;;;25.90;78.80;;;;;;6186970;23;20884;-81
2021/06/27 11:12:58;;;;;;;4.93;4.30;;;25.90;76.40;;;;;;6188397;23;20384;-81
2021/06/27 11:15:34;;;;;;;5.10;4.40;;;25.90;76.00;;;;;;6189272;23;20363;-81
2021/06/27 11:18:02;;;;;;;7.70;4.30;;;25.90;77.90;;;;;;6186541;23;20379;-82
2021/06/27 11:20:33;;;;;;;6.00;4.33;;;25.90;79.70;;;;;;6186742;23;20431;-81
2021/06/27 11:22:59;;;;;;;5.37;4.30;;;26.00;79.10;;;;;;6189178;23;20925;-82
2021/06/27 11:25:34;;;;;;;7.00;4.50;;;26.00;80.80;;;;;;6188100;23;20384;-81
2021/06/27 11:28:20;;;;;;;4.70;4.20;;;26.10;80.30;;;;;;6188539;23;20159;-82
2021/06/27 11:31:14;;;;;;;7.00;4.53;;;26.20;78.70;;;;;;6188799;23;20387;-81
2021/06/27 11:33:39;;;;;;;5.90;4.47;;;26.20;79.90;;;;;;6189021;23;20885;-81
2021/06/27 11:36:24;;;;;;;6.83;4.53;;;26.20;77.60;;;;;;6189790;23;20376;-81
2021/06/27 11:38:50;;;;;;;5.13;4.30;;;26.20;79.70;;;;;;6187452;23;20151;-81
2021/06/27 11:41:22;;;;;;;4.50;3.47;;;26.30;81.20;;;;;;6189368;23;20435;-81
2021/06/27 11:44:00;;;;;;;4.00;3.80;;;26.30;77.40;;;;;;6188527;23;20195;-81
2021/06/27 11:46:31;;;;;;;3.27;2.87;;;26.40;78.30;;;;;;6187994;23;20926;-81
2021/06/27 11:48:59;;;;;;;3.77;3.13;;;26.40;75.10;;;;;;6187880;23;20372;-81
2021/06/27 11:51:44;;;;;;;4.40;3.30;;;26.50;77.80;;;;;;6189867;23;20491;-81
2021/06/27 11:54:17;;;;;;;4.70;4.00;;;26.70;78.70;;;;;;6192682;23;20384;-81
2021/06/27 11:56:58;;;;;;;6.33;3.80;;;26.80;80.30;;;;;;6191022;23;20385;-81
2021/06/27 11:59:28;;;;;;;4.93;3.80;;;26.90;78.40;;;;;;6188879;23;20430;-82
2021/06/27 12:02:10;;;;;;;8.40;3.90;;;26.90;77.00;;;;;;6188973;23;20467;-81
2021/06/27 12:04:44;;;;;;;4.10;3.50;;;27.00;78.00;;;;;;6191251;23;20368;-81
2021/06/27 12:07:28;;;;;;;4.40;4.07;;;27.10;80.90;;;;;;6187913;23;20372;-81
2021/06/27 12:09:55;;;;;;;3.60;3.50;;;27.20;80.00;;;;;;6187488;23;20399;-81
2021/06/27 12:12:42;;;;;;;4.20;3.90;;;27.40;76.00;;;;;;6188490;23;20404;-82
2021/06/27 12:15:47;;;;;;;4.30;3.50;;;27.40;75.30;;;;;;6187252;23;20435;-82
2021/06/27 12:18:20;;;;;;;4.70;3.70;;;27.50;74.00;;;;;;6189097;23;20382;-82
2021/06/27 12:20:52;;;;;;;4.93;3.67;;;27.60;77.40;;;;;;6188505;23;20435;-82
2021/06/27 12:23:20;;;;;;;3.93;3.80;;;27.70;78.30;;;;;;6187633;23;20421;-82
2021/06/27 12:25:51;;;;;;;5.17;4.03;;;27.80;77.10;;;;;;6189188;23;20383;-82
2021/06/27 12:28:28;;;;;;;7.33;4.20;;;27.90;78.90;;;;;;6187482;23;20411;-82
2021/06/27 12:30:59;;;;;;;6.80;4.20;;;27.90;79.60;;;;;;6186717;23;20446;-82
2021/06/27 12:33:33;;;;;;;4.37;3.90;;;28.00;80.30;;;;;;6188380;23;20376;-82
2021/06/27 12:36:10;;;;;;;4.20;3.60;;;27.90;77.40;;;;;;6187643;23;20743;-82
2021/06/27 12:38:37;;;;;;;5.80;4.30;;;27.80;75.80;;;;;;6187823;23;20386;-82
2021/06/27 12:41:05;;;;;;;4.60;4.00;;;27.80;76.10;;;;;;6189156;23;20954;-82
2021/06/27 12:43:36;;;;;;;8.17;4.13;;;27.80;77.40;;;;;;6190756;23;20431;-82
2021/06/27 12:46:13;;;;;;;7.80;4.37;;;27.80;77.70;;;;;;6191705;23;20671;-82
2021/06/27 12:48:40;;;;;;;3.87;3.73;;;27.80;77.70;;;;;;6189776;23;20391;-82
2021/06/27 12:51:49;;;;;;;5.50;4.20;;;27.80;78.30;;;;;;6189923;23;20412;-81
2021/06/27 12:54:17;;;;;;;4.33;3.80;;;27.90;76.50;;;;;;6075600;23;20421;-82
2021/06/27 12:56:56;;;;;;;4.70;4.30;;;27.90;77.10;;;;;;6076967;23;20405;-82
2021/06/27 12:59:43;;;;;;;10.30;4.37;;;28.00;76.50;;;;;;6144814;23;20422;-82
2021/06/27 13:02:27;;;;;;;5.30;4.00;;;28.10;78.00;;;;;;6194299;23;20427;-81
2021/06/27 13:04:54;;;;;;;5.27;4.07;;;28.10;75.90;;;;;;6193989;23;20402;-82
2021/06/27 13:07:44;;;;;;;4.40;3.60;;;28.10;74.10;;;;;;6192648;23;20415;-82
2021/06/27 13:10:23;;;;;;;4.30;4.00;;;28.10;74.60;;;;;;6189335;23;20376;-81
2021/06/27 13:13:05;;;;;;;4.77;3.87;;;28.20;78.70;;;;;;6190569;23;20888;-82
2021/06/27 13:15:40;;;;;;;4.60;4.40;;;28.40;78.90;;;;;;6190427;23;20379;-82
2021/06/27 13:18:23;;;;;;;4.50;4.10;;;28.60;81.20;;;;;;6190109;23;20454;-81
2021/06/27 13:20:51;;;;;;;4.17;3.93;;;28.70;79.00;;;;;;6189689;23;20541;-82
2021/06/27 13:23:27;;;;;;;3.90;3.70;;;28.80;77.70;;;;;;6189980;23;20383;-81
2021/06/27 13:26:05;;;;;;;3.83;3.63;;;28.90;77.30;;;;;;6192086;23;20442;-82
2021/06/27 13:28:44;;;;;;;4.83;3.80;;;29.10;79.10;;;;;;6190844;23;20418;-81
2021/06/27 13:31:22;;;;;;;4.13;3.93;;;29.20;75.80;;;;;;6189816;23;20458;-81
2021/06/27 13:33:54;;;;;;;5.20;3.60;;;29.20;72.50;;;;;;6189473;23;20383;-82
2021/06/27 13:36:37;;;;;;;3.67;3.47;;;29.20;74.10;;;;;;6191219;23;20396;-81
2021/06/27 13:39:11;;;;;;;5.73;3.67;;;29.20;72.90;;;;;;6191512;23;20388;-81
2021/06/27 13:41:38;;;;;;;4.43;4.20;;;29.20;75.00;;;;;;6189570;23;20439;-82
2021/06/27 13:44:05;;;;;;;4.57;3.67;;;29.20;74.40;;;;;;6189539;23;20621;-82
2021/06/27 13:46:31;;;;;;;3.67;3.50;;;29.30;74.40;;;;;;6191128;23;20402;-82
2021/06/27 13:48:57;;;;;;;4.00;3.37;;;29.40;75.20;;;;;;6190053;23;20380;-82
2021/06/27 13:51:23;;;;;;;3.70;3.47;;;29.50;72.80;;;;;;6189973;23;20494;-82
2021/06/27 13:53:49;;;;;;;11.93;3.77;;;29.30;72.10;;;;;;6189845;23;20211;-82
2021/06/27 13:56:18;;;;;;;5.37;3.87;;;29.00;72.80;;;;;;6191064;23;20165;-81
2021/06/27 13:58:53;;;;;;;3.80;3.60;;;28.90;76.20;;;;;;6190172;23;20395;-81
2021/06/27 14:01:21;;;;;;;3.70;3.50;;;28.90;77.70;;;;;;6188762;23;20443;-82